createdAt,value
2023-12-13T00:02:14.442Z,99675.16
2023-12-13T00:04:41.039Z,99673.75
2023-12-13T00:07:07.610Z,99678.72
2023-12-13T00:09:34.250Z,99671.16
2023-12-13T00:12:00.776Z,99674.94
2023-12-13T00:14:27.186Z,99671.72
2023-12-13T00:16:53.701Z,99671.72
2023-12-13T00:19:22.049Z,99670.56
2023-12-13T00:21:48.969Z,99671.94
2023-12-13T00:24:15.608Z,99663.03
2023-12-13T00:26:42.164Z,99673.38
2023-12-13T00:29:09.903Z,99677.56
2023-12-13T00:31:36.865Z,99667.81
2023-12-13T00:34:04.438Z,99665.22
2023-12-13T00:36:30.981Z,99659.09
2023-12-13T00:38:58.218Z,99662.47
2023-12-13T00:41:25.523Z,99660.66
2023-12-13T00:43:52.131Z,99654.53
2023-12-13T00:46:21.551Z,99665.47
2023-12-13T00:48:48.933Z,99670.63
2023-12-13T00:51:23.183Z,99668.84
2023-12-13T00:53:50.399Z,99668.84
2023-12-13T00:56:17.443Z,99674.63
2023-12-13T00:58:44.327Z,99669.47
2023-12-13T01:01:10.830Z,99670.25
2023-12-13T01:03:37.377Z,99665.06
2023-12-13T01:06:07.996Z,99672.66
2023-12-13T01:08:34.484Z,99660.50
2023-12-13T01:11:01.013Z,99667.28
2023-12-13T01:13:28.929Z,99662.91
2023-12-13T01:15:55.435Z,99659.53
2023-12-13T01:18:21.975Z,99659.53
2023-12-13T01:20:48.435Z,99654.38
2023-12-13T01:23:14.999Z,99664.69
2023-12-13T01:25:41.580Z,99666.31
2023-12-13T01:28:08.755Z,99664.50
2023-12-13T01:30:35.346Z,99666.31
2023-12-13T01:33:02.011Z,99667.88
2023-12-13T01:35:28.515Z,99661.94
2023-12-13T01:37:55.030Z,99669.69
2023-12-13T01:40:21.950Z,99675.63
2023-12-13T01:42:48.431Z,99680.63
2023-12-13T01:45:14.901Z,99684.00
2023-12-13T01:47:41.538Z,99686.56
2023-12-13T01:50:09.320Z,99693.34
2023-12-13T01:52:37.599Z,99692.38
2023-12-13T01:55:05.566Z,99683.81
2023-12-13T01:57:32.271Z,99692.38
2023-12-13T01:59:58.962Z,99694.97
2023-12-13T02:02:25.813Z,99693.16
2023-12-13T02:04:54.350Z,99696.53
2023-12-13T02:07:20.978Z,99696.34
2023-12-13T02:09:47.408Z,99697.34
2023-12-13T02:12:13.875Z,99689.59
2023-12-13T02:14:41.551Z,99691.19
2023-12-13T02:17:08.026Z,99693.75
2023-12-13T02:19:38.094Z,99695.56
2023-12-13T02:22:09.179Z,99690.38
2023-12-13T02:24:40.434Z,99697.16
2023-12-13T02:27:07.841Z,99694.59
2023-12-13T02:29:35.078Z,99684.25
2023-12-13T02:32:04.071Z,99692.00
2023-12-13T02:34:30.472Z,99683.22
2023-12-13T02:36:56.962Z,99680.06
2023-12-13T02:39:24.644Z,99679.25
2023-12-13T02:41:51.199Z,99673.28
2023-12-13T02:44:17.652Z,99676.88
2023-12-13T02:46:44.138Z,99672.69
2023-12-13T02:49:10.681Z,99675.25
2023-12-13T02:51:39.420Z,99673.66
2023-12-13T02:54:06.082Z,99670.28
2023-12-13T02:56:32.899Z,99669.69
2023-12-13T02:58:59.387Z,99669.88
2023-12-13T03:01:25.905Z,99667.28
2023-12-13T03:03:52.495Z,99675.41
2023-12-13T03:06:18.931Z,99670.44
2023-12-13T03:08:45.411Z,99663.47
2023-12-13T03:11:11.866Z,99668.44
2023-12-13T03:13:38.542Z,99670.25
2023-12-13T03:16:08.519Z,99665.88
2023-12-13T03:18:35.142Z,99660.88
2023-12-13T03:21:01.657Z,99666.88
2023-12-13T03:23:28.067Z,99667.06
2023-12-13T03:25:54.618Z,99658.69
2023-12-13T03:28:21.109Z,99653.69
2023-12-13T03:30:47.569Z,99654.91
2023-12-13T03:33:14.499Z,99646.53
2023-12-13T03:35:41.058Z,99650.91
2023-12-13T03:38:07.910Z,99653.66
2023-12-13T03:40:34.387Z,99651.91
2023-12-13T03:43:02.151Z,99649.31
2023-12-13T03:45:28.616Z,99645.13
2023-12-13T03:47:55.242Z,99644.16
2023-12-13T03:50:22.066Z,99641.56
2023-12-13T03:52:48.520Z,99647.72
2023-12-13T03:55:15.170Z,99652.69
2023-12-13T03:57:42.075Z,99656.06
2023-12-13T04:00:09.265Z,99646.75
2023-12-13T04:02:35.908Z,99649.31
2023-12-13T04:05:02.411Z,99656.06
2023-12-13T04:07:32.593Z,99650.72
2023-12-13T04:09:59.214Z,99649.72
2023-12-13T04:12:25.669Z,99648.75
2023-12-13T04:14:52.141Z,99652.91
2023-12-13T04:17:18.603Z,99648.53
2023-12-13T04:19:45.144Z,99657.91
2023-12-13T04:22:11.590Z,99651.94
2023-12-13T04:24:38.020Z,99657.09
2023-12-13T04:27:04.888Z,99647.38
2023-12-13T04:29:31.331Z,99649.94
2023-12-13T04:31:58.843Z,99637.03
2023-12-13T04:34:25.373Z,99638.81
2023-12-13T04:36:52.204Z,99641.41
2023-12-13T04:39:18.600Z,99641.59
2023-12-13T04:41:45.065Z,99634.22
2023-12-13T04:44:13.562Z,99636.81
2023-12-13T04:46:41.321Z,99644.75
2023-12-13T04:49:07.820Z,99648.31
2023-12-13T04:51:34.368Z,99650.09
2023-12-13T04:54:00.841Z,99656.06
2023-12-13T04:56:27.257Z,99650.91
2023-12-13T04:58:54.601Z,99652.69
2023-12-13T05:01:21.090Z,99651.72
2023-12-13T05:03:48.264Z,99649.31
2023-12-13T05:06:16.160Z,99646.53
2023-12-13T05:08:42.668Z,99646.53
2023-12-13T05:11:09.090Z,99635.59
2023-12-13T05:13:35.681Z,99644.16
2023-12-13T05:16:02.157Z,99644.94
2023-12-13T05:18:28.604Z,99642.34
2023-12-13T05:20:55.051Z,99644.16
2023-12-13T05:23:21.531Z,99638.97
2023-12-13T05:25:48.149Z,99642.34
2023-12-13T05:28:15.068Z,99642.34
2023-12-13T05:30:41.674Z,99644.94
2023-12-13T05:33:12.085Z,99647.53
2023-12-13T05:35:38.694Z,99646.53
2023-12-13T05:38:05.538Z,99644.16
2023-12-13T05:40:34.935Z,99644.16
2023-12-13T05:43:02.142Z,99648.50
2023-12-13T05:45:28.637Z,99644.34
2023-12-13T05:47:55.212Z,99644.53
2023-12-13T05:50:21.824Z,99637.94
2023-12-13T05:52:48.346Z,99644.13
2023-12-13T05:55:14.926Z,99643.50
2023-12-13T05:57:41.476Z,99638.31
2023-12-13T06:00:08.725Z,99641.91
2023-12-13T06:02:35.948Z,99637.53
2023-12-13T06:05:04.558Z,99642.50
2023-12-13T06:07:31.498Z,99634.75
2023-12-13T06:09:58.118Z,99637.53
2023-12-13T06:12:24.573Z,99641.72
2023-12-13T06:14:51.148Z,99636.56
2023-12-13T06:17:17.559Z,99630.19
2023-12-13T06:19:44.106Z,99636.97
2023-12-13T06:22:11.790Z,99643.72
2023-12-13T06:24:38.209Z,99641.75
2023-12-13T06:27:04.877Z,99645.91
2023-12-13T06:29:31.306Z,99643.97
2023-12-13T06:31:57.764Z,99640.38
2023-12-13T06:34:24.214Z,99638.59
2023-12-13T06:36:50.850Z,99643.59
2023-12-13T06:39:18.100Z,99644.19
2023-12-13T06:41:46.042Z,99650.94
2023-12-13T06:44:14.991Z,99657.50
2023-12-13T06:46:41.488Z,99660.09
2023-12-13T06:49:10.289Z,99653.94
2023-12-13T06:51:37.640Z,99665.69
2023-12-13T06:54:04.696Z,99665.69
2023-12-13T06:56:31.139Z,99658.75
2023-12-13T06:58:57.574Z,99656.16
2023-12-13T07:01:24.143Z,99666.31
2023-12-13T07:03:50.690Z,99667.88
2023-12-13T07:06:19.211Z,99663.50
2023-12-13T07:08:46.399Z,99672.88
2023-12-13T07:11:13.411Z,99675.25
2023-12-13T07:13:41.221Z,99673.66
2023-12-13T07:16:08.954Z,99671.88
2023-12-13T07:18:35.584Z,99674.28
2023-12-13T07:21:02.055Z,99677.66
2023-12-13T07:23:30.928Z,99679.25
2023-12-13T07:25:57.375Z,99679.06
2023-12-13T07:28:23.838Z,99672.91
2023-12-13T07:31:01.466Z,99678.66
2023-12-13T07:33:35.656Z,99687.22
2023-12-13T07:36:02.674Z,99691.22
2023-12-13T07:38:29.115Z,99682.47
2023-12-13T07:40:55.945Z,99679.69
2023-12-13T07:43:22.510Z,99678.91
2023-12-13T07:45:53.389Z,99684.88
2023-12-13T07:48:27.653Z,99683.06
2023-12-13T07:50:56.835Z,99680.50
2023-12-13T07:53:23.421Z,99689.66
2023-12-13T07:55:50.222Z,99687.06
2023-12-13T07:58:16.873Z,99691.25
2023-12-13T08:00:43.581Z,99696.22
2023-12-13T08:03:10.815Z,99691.88
2023-12-13T08:05:37.300Z,99696.03
2023-12-13T08:08:06.804Z,99693.25
2023-12-13T08:10:33.325Z,99695.03
2023-12-13T08:13:00.787Z,99694.06
2023-12-13T08:15:27.884Z,99696.47
2023-12-13T08:17:54.582Z,99700.63
2023-12-13T08:20:21.150Z,99698.88
2023-12-13T08:22:47.808Z,99698.66
2023-12-13T08:25:14.634Z,99707.81
2023-12-13T08:27:41.130Z,99700.84
2023-12-13T08:30:08.525Z,99702.44
2023-12-13T08:32:34.997Z,99706.66
2023-12-13T08:35:01.456Z,99713.19
2023-12-13T08:37:27.958Z,99710.44
2023-12-13T08:39:54.382Z,99709.44
2023-12-13T08:42:21.173Z,99709.06
2023-12-13T08:44:48.182Z,99715.63
2023-12-13T08:47:14.853Z,99717.22
2023-12-13T08:49:41.489Z,99717.63
2023-12-13T08:52:07.938Z,99716.66
2023-12-13T08:54:34.659Z,99717.25
2023-12-13T08:57:01.714Z,99718.66
2023-12-13T08:59:28.098Z,99717.47
2023-12-13T09:01:54.634Z,99718.28
2023-12-13T09:04:21.099Z,99725.47
2023-12-13T09:06:47.584Z,99717.72
2023-12-13T09:09:16.436Z,99714.53
2023-12-13T09:11:43.995Z,99728.69
2023-12-13T09:14:11.116Z,99730.69
2023-12-13T09:16:37.665Z,99726.53
2023-12-13T09:19:04.177Z,99732.94
2023-12-13T09:21:30.696Z,99736.72
2023-12-13T09:23:57.209Z,99744.09
2023-12-13T09:26:27.828Z,99742.91
2023-12-13T09:28:57.931Z,99739.34
2023-12-13T09:31:25.719Z,99746.69
2023-12-13T09:33:53.797Z,99748.28
2023-12-13T09:36:21.401Z,99741.31
2023-12-13T09:38:48.181Z,99751.66
2023-12-13T09:41:26.068Z,99742.91
2023-12-13T09:43:55.276Z,99756.66
2023-12-13T09:46:22.586Z,99764.22
2023-12-13T09:48:49.767Z,99763.66
2023-12-13T09:51:19.622Z,99758.06
2023-12-13T09:53:48.880Z,99760.88
2023-12-13T09:56:15.511Z,99768.25
2023-12-13T09:58:41.979Z,99762.09
2023-12-13T10:01:13.964Z,99774.22
2023-12-13T10:03:40.886Z,99772.44
2023-12-13T10:06:11.032Z,99769.22
2023-12-13T10:08:37.795Z,99780.22
2023-12-13T10:11:05.738Z,99779.19
2023-12-13T10:13:35.582Z,99778.03
2023-12-13T10:16:10.814Z,99782.41
2023-12-13T10:18:37.802Z,99782.81
2023-12-13T10:21:04.542Z,99784.78
2023-12-13T10:23:31.231Z,99785.59
2023-12-13T10:25:57.998Z,99792.72
2023-12-13T10:28:24.572Z,99808.28
2023-12-13T10:30:51.491Z,99800.31
2023-12-13T10:33:17.993Z,99801.31
2023-12-13T10:35:44.508Z,99799.72
2023-12-13T10:38:16.934Z,99801.91
2023-12-13T10:40:44.324Z,99793.16
2023-12-13T10:43:12.607Z,99793.56
2023-12-13T10:45:43.638Z,99790.78
2023-12-13T10:48:11.813Z,99789.75
2023-12-13T10:50:39.312Z,99791.56
2023-12-13T10:53:08.514Z,99787.78
2023-12-13T10:55:36.816Z,99795.19
2023-12-13T10:58:03.426Z,99795.56
2023-12-13T11:00:30.501Z,99798.38
2023-12-13T11:03:07.262Z,99805.16
2023-12-13T11:05:33.878Z,99802.13
2023-12-13T11:08:00.301Z,99806.72
2023-12-13T11:10:26.771Z,99811.91
2023-12-13T11:12:53.893Z,99807.34
2023-12-13T11:15:22.232Z,99812.16
2023-12-13T11:17:55.630Z,99811.72
2023-12-13T11:20:23.052Z,99817.94
2023-12-13T11:22:50.269Z,99815.53
2023-12-13T11:25:17.997Z,99819.34
2023-12-13T11:27:51.565Z,99832.31
2023-12-13T11:30:18.761Z,99823.13
2023-12-13T11:32:49.596Z,99826.72
2023-12-13T11:35:18.499Z,99827.72
2023-12-13T11:38:00.356Z,99827.72
2023-12-13T11:40:28.478Z,99831.72
2023-12-13T11:42:55.335Z,99824.31
2023-12-13T11:45:22.169Z,99829.50
2023-12-13T11:47:51.238Z,99832.28
2023-12-13T11:50:20.697Z,99836.28
2023-12-13T11:52:47.439Z,99834.28
2023-12-13T11:55:17.705Z,99836.69
2023-12-13T11:57:45.867Z,99841.06
2023-12-13T12:00:12.848Z,99842.88
2023-12-13T12:02:39.825Z,99842.28
2023-12-13T12:05:08.242Z,99837.69
2023-12-13T12:07:35.223Z,99847.66
2023-12-13T12:10:03.587Z,99850.06
2023-12-13T12:12:30.733Z,99851.03
2023-12-13T12:14:57.259Z,99852.66
2023-12-13T12:17:25.796Z,99848.47
2023-12-13T12:19:52.728Z,99848.25
2023-12-13T12:22:21.546Z,99857.84
2023-12-13T12:24:50.619Z,99854.66
2023-12-13T12:27:17.147Z,99856.22
2023-12-13T12:29:44.164Z,99860.63
2023-12-13T12:32:10.775Z,99861.63
2023-12-13T12:34:38.423Z,99863.41
2023-12-13T12:37:05.767Z,99861.63
2023-12-13T12:39:33.311Z,99860.81
2023-12-13T12:42:00.816Z,99863.59
2023-12-13T12:44:27.422Z,99867.41
2023-12-13T12:46:53.955Z,99861.84
2023-12-13T12:49:20.646Z,99866.19
2023-12-13T12:51:47.526Z,99880.56
2023-12-13T12:54:14.007Z,99872.19
2023-12-13T12:56:40.703Z,99868.78
2023-12-13T12:59:08.791Z,99874.56
2023-12-13T13:01:35.336Z,99873.00
2023-12-13T13:04:01.957Z,99871.78
2023-12-13T13:06:28.648Z,99876.75
2023-12-13T13:08:55.162Z,99876.16
2023-12-13T13:11:21.977Z,99886.94
2023-12-13T13:13:48.502Z,99885.13
2023-12-13T13:16:15.618Z,99883.75
2023-12-13T13:18:43.399Z,99884.91
2023-12-13T13:21:13.364Z,99886.72
2023-12-13T13:23:39.848Z,99887.69
2023-12-13T13:26:08.128Z,99889.06
2023-12-13T13:28:34.623Z,99886.50
2023-12-13T13:31:01.158Z,99895.69
2023-12-13T13:33:27.972Z,99903.44
2023-12-13T13:35:54.480Z,99893.09
2023-12-13T13:38:21.299Z,99896.84
2023-12-13T13:40:48.169Z,99903.84
2023-12-13T13:43:15.055Z,99901.25
2023-12-13T13:45:41.841Z,99906.63
2023-12-13T13:48:10.906Z,99912.00
2023-12-13T13:50:37.425Z,99915.59
2023-12-13T13:53:06.153Z,99918.00
2023-12-13T13:55:33.507Z,99922.75
2023-12-13T13:57:59.946Z,99915.81
2023-12-13T14:00:26.386Z,99918.59
2023-12-13T14:02:52.968Z,99927.34
2023-12-13T14:05:19.458Z,99924.75
2023-12-13T14:07:46.306Z,99932.13
2023-12-13T14:10:12.724Z,99935.50
2023-12-13T14:12:39.143Z,99933.94
2023-12-13T14:15:06.314Z,99939.50
2023-12-13T14:17:33.146Z,99944.47
2023-12-13T14:20:00.510Z,99947.25
2023-12-13T14:22:27.158Z,99954.41
2023-12-13T14:24:53.658Z,99958.19
2023-12-13T14:27:20.281Z,99956.97
2023-12-13T14:29:46.765Z,99962.72
2023-12-13T14:32:13.288Z,99976.25
2023-12-13T14:34:39.865Z,99983.59
2023-12-13T14:37:06.951Z,99978.00
2023-12-13T14:39:33.366Z,99982.41
2023-12-13T14:41:59.782Z,99978.19
2023-12-13T14:44:26.320Z,99984.56
2023-12-13T14:46:52.817Z,99989.13
2023-12-13T14:49:20.199Z,99995.13
2023-12-13T14:51:46.793Z,99998.09
2023-12-13T14:54:13.637Z,99996.47
2023-12-13T14:56:40.240Z,100001.47
2023-12-13T14:59:06.818Z,100011.22
2023-12-13T15:01:33.532Z,100015.78
2023-12-13T15:04:00.272Z,100021.13
2023-12-13T15:06:27.155Z,100025.53
2023-12-13T15:08:53.699Z,100036.44
2023-12-13T15:11:20.195Z,100043.00
2023-12-13T15:13:46.744Z,100038.19
2023-12-13T15:16:13.436Z,100046.75
2023-12-13T15:18:40.183Z,100049.75
2023-12-13T15:21:07.883Z,100062.50
2023-12-13T15:23:37.324Z,100058.75
2023-12-13T15:26:04.064Z,100062.13
2023-12-13T15:28:34.301Z,100063.34
2023-12-13T15:31:00.849Z,100069.50
2023-12-13T15:33:28.012Z,100066.47
2023-12-13T15:35:54.569Z,100076.13
2023-12-13T15:38:20.978Z,100082.50
2023-12-13T15:40:47.516Z,100079.28
2023-12-13T15:43:14.243Z,100088.03
2023-12-13T15:45:42.736Z,100091.59
2023-12-13T15:48:09.293Z,100095.97
2023-12-13T15:50:35.704Z,100103.75
2023-12-13T15:53:02.262Z,100108.13
2023-12-13T15:55:31.800Z,100109.91
2023-12-13T15:57:58.389Z,100106.88
2023-12-13T16:00:28.559Z,100117.25
2023-12-13T16:02:55.860Z,100115.25
2023-12-13T16:05:22.361Z,100121.44
2023-12-13T16:07:49.756Z,100130.97
2023-12-13T16:10:20.704Z,100135.53
2023-12-13T16:12:49.563Z,100134.13
2023-12-13T16:15:16.622Z,100140.09
2023-12-13T16:17:44.097Z,100141.06
2023-12-13T16:20:11.390Z,100144.47
2023-12-13T16:22:38.491Z,100144.66
2023-12-13T16:25:05.495Z,100155.19
2023-12-13T16:27:32.472Z,100147.97
2023-12-13T16:29:58.991Z,100163.06
2023-12-13T16:32:25.494Z,100166.81
2023-12-13T16:34:52.071Z,100160.22
2023-12-13T16:37:24.154Z,100171.75
2023-12-13T16:39:50.948Z,100181.28
2023-12-13T16:42:20.709Z,100183.25
2023-12-13T16:44:47.317Z,100189.41
2023-12-13T16:47:13.760Z,100194.59
2023-12-13T16:49:44.721Z,100195.38
2023-12-13T16:52:11.272Z,100202.34
2023-12-13T16:54:37.740Z,100210.91
2023-12-13T16:57:04.212Z,100211.69
2023-12-13T16:59:30.608Z,100218.50
2023-12-13T17:01:57.145Z,100224.28
2023-12-13T17:04:23.707Z,100233.66
2023-12-13T17:06:50.409Z,100237.81
2023-12-13T17:09:18.097Z,100232.66
2023-12-13T17:11:44.523Z,100248.16
2023-12-13T17:14:11.006Z,100253.34
2023-12-13T17:16:37.611Z,100257.72
2023-12-13T17:19:04.257Z,100266.47
2023-12-13T17:21:30.746Z,100268.06
2023-12-13T17:23:57.178Z,100272.47
2023-12-13T17:26:24.005Z,100290.56
2023-12-13T17:28:50.426Z,100287.38
2023-12-13T17:31:17.024Z,100283.94
2023-12-13T17:33:43.837Z,100291.88
2023-12-13T17:36:10.486Z,100302.25
2023-12-13T17:38:40.359Z,100305.00
2023-12-13T17:41:10.728Z,100304.22
2023-12-13T17:43:39.985Z,100313.75
2023-12-13T17:46:13.367Z,100315.69
2023-12-13T17:48:46.353Z,100314.13
2023-12-13T17:51:13.116Z,100321.06
2023-12-13T17:53:43.393Z,100328.03
2023-12-13T17:56:09.996Z,100331.78
2023-12-13T17:58:36.562Z,100335.97
2023-12-13T18:01:03.168Z,100342.31
2023-12-13T18:03:29.769Z,100343.09
2023-12-13T18:05:56.461Z,100348.09
2023-12-13T18:08:22.918Z,100362.63
2023-12-13T18:10:49.365Z,100360.03
2023-12-13T18:13:19.055Z,100370.38
2023-12-13T18:15:47.762Z,100372.00
2023-12-13T18:18:14.602Z,100382.34
2023-12-13T18:20:41.023Z,100378.97
2023-12-13T18:23:09.194Z,100385.91
2023-12-13T18:25:35.731Z,100391.06
2023-12-13T18:28:04.958Z,100393.03
2023-12-13T18:30:31.503Z,100390.44
2023-12-13T18:33:00.145Z,100396.44
2023-12-13T18:35:27.013Z,100401.63
2023-12-13T18:37:53.936Z,100402.59
2023-12-13T18:40:20.528Z,100415.69
2023-12-13T18:42:47.192Z,100425.25
2023-12-13T18:45:16.744Z,100424.41
2023-12-13T18:47:46.210Z,100420.25
2023-12-13T18:50:12.851Z,100433.00
2023-12-13T18:52:39.337Z,100431.38
2023-12-13T18:55:06.934Z,100443.34
2023-12-13T18:57:33.722Z,100448.53
2023-12-13T19:00:00.231Z,100457.06
2023-12-13T19:02:26.678Z,100453.88
2023-12-13T19:04:53.155Z,100452.88
2023-12-13T19:07:20.082Z,100460.81
2023-12-13T19:09:46.540Z,100471.16
2023-12-13T19:12:12.952Z,100471.97
2023-12-13T19:14:39.438Z,100481.50
2023-12-13T19:17:07.494Z,100484.91
2023-12-13T19:19:34.282Z,100491.84
2023-12-13T19:22:00.876Z,100485.06
2023-12-13T19:24:27.426Z,100495.44
2023-12-13T19:26:53.906Z,100498.97
2023-12-13T19:29:24.258Z,100499.94
2023-12-13T19:31:53.505Z,100512.88
2023-12-13T19:34:27.843Z,100517.25
2023-12-13T19:37:01.402Z,100518.25
2023-12-13T19:39:27.838Z,100523.94
2023-12-13T19:41:54.257Z,100526.84
2023-12-13T19:44:20.775Z,100534.94
2023-12-13T19:46:47.339Z,100532.06
2023-12-13T19:49:13.969Z,100550.84
2023-12-13T19:51:40.519Z,100549.56
2023-12-13T19:54:07.056Z,100555.25
2023-12-13T19:56:33.491Z,100566.75
2023-12-13T19:58:59.936Z,100570.63
2023-12-13T20:01:26.412Z,100572.75
2023-12-13T20:03:52.923Z,100582.78
2023-12-13T20:06:20.784Z,100581.84
2023-12-13T20:08:47.270Z,100583.31
2023-12-13T20:11:15.296Z,100596.72
2023-12-13T20:13:50.048Z,100597.22
2023-12-13T20:16:22.473Z,100611.63
2023-12-13T20:18:48.931Z,100616.63
2023-12-13T20:21:15.491Z,100619.06
2023-12-13T20:23:42.360Z,100626.63
2023-12-13T20:26:08.854Z,100622.31
2023-12-13T20:28:39.692Z,100619.56
2023-12-13T20:31:06.912Z,100634.88
2023-12-13T20:33:33.512Z,100634.41
2023-12-13T20:36:00.006Z,100636.50
2023-12-13T20:38:26.639Z,100642.78
2023-12-13T20:40:53.132Z,100649.09
2023-12-13T20:43:22.742Z,100647.00
2023-12-13T20:45:49.273Z,100648.25
2023-12-13T20:48:15.968Z,100654.88
2023-12-13T20:50:42.504Z,100646.97
2023-12-13T20:53:08.983Z,100675.69
2023-12-13T20:55:37.336Z,100684.53
2023-12-13T20:58:04.021Z,100693.41
2023-12-13T21:00:30.466Z,100698.72
2023-12-13T21:02:57.053Z,100704.84
2023-12-13T21:05:23.557Z,100710.78
2023-12-13T21:07:50.035Z,100716.78
2023-12-13T21:10:16.643Z,100718.53
2023-12-13T21:12:44.275Z,100728.84
2023-12-13T21:15:12.308Z,100736.59
2023-12-13T21:17:39.279Z,100749.81
2023-12-13T21:20:07.045Z,100753.03
2023-12-13T21:22:33.830Z,100762.66
2023-12-13T21:25:00.858Z,100759.75
2023-12-13T21:27:27.577Z,100762.78
2023-12-13T21:29:54.137Z,100777.63
2023-12-13T21:32:20.928Z,100782.78
2023-12-13T21:34:47.411Z,100789.38
2023-12-13T21:37:13.906Z,100789.78
2023-12-13T21:39:54.682Z,100801.34
2023-12-13T21:42:22.107Z,100796.00
2023-12-13T21:44:48.583Z,100798.09
2023-12-13T21:47:16.261Z,100801.75
2023-12-13T21:49:44.773Z,100807.22
2023-12-13T21:52:11.368Z,100816.22
2023-12-13T21:54:37.796Z,100831.34
2023-12-13T21:57:04.565Z,100824.03
2023-12-13T21:59:31.001Z,100820.00
2023-12-13T22:01:57.683Z,100819.34
2023-12-13T22:04:24.868Z,100825.44
2023-12-13T22:06:51.635Z,100827.22
2023-12-13T22:09:18.081Z,100834.28
2023-12-13T22:11:44.643Z,100840.25
2023-12-13T22:14:11.248Z,100845.41
2023-12-13T22:16:37.863Z,100847.19
2023-12-13T22:19:21.775Z,100851.50
2023-12-13T22:21:49.603Z,100862.78
2023-12-13T22:24:16.536Z,100869.72
2023-12-13T22:26:43.050Z,100866.44
2023-12-13T22:29:09.612Z,100872.88
2023-12-13T22:31:36.460Z,100882.34
2023-12-13T22:34:02.956Z,100891.06
2023-12-13T22:36:29.349Z,100901.38
2023-12-13T22:38:55.901Z,100907.59
2023-12-13T22:41:24.011Z,100912.25
2023-12-13T22:43:50.464Z,100922.84
2023-12-13T22:46:16.990Z,100924.91
2023-12-13T22:48:43.388Z,100918.25
2023-12-13T22:51:09.966Z,100912.31
2023-12-13T22:53:36.466Z,100922.63
2023-12-13T22:56:03.013Z,100933.72
2023-12-13T22:58:29.593Z,100936.97
2023-12-13T23:00:56.103Z,100938.88
2023-12-13T23:03:22.615Z,100945.78
2023-12-13T23:05:49.500Z,100948.38
2023-12-13T23:08:16.171Z,100949.59
2023-12-13T23:10:42.665Z,100958.44
2023-12-13T23:13:09.249Z,100968.09
2023-12-13T23:15:35.961Z,100970.81
2023-12-13T23:18:06.007Z,100973.53
2023-12-13T23:20:32.631Z,100975.25
2023-12-13T23:22:59.695Z,100975.41
2023-12-13T23:25:26.541Z,100986.53
2023-12-13T23:27:53.022Z,100986.81
2023-12-13T23:30:19.764Z,100988.03
2023-12-13T23:32:46.389Z,100990.91
2023-12-13T23:35:12.886Z,100997.03
2023-12-13T23:37:39.420Z,100996.19
2023-12-13T23:40:08.428Z,101009.34
2023-12-13T23:42:35.295Z,101018.84
2023-12-13T23:45:01.964Z,101020.63
2023-12-13T23:47:28.501Z,101019.81
2023-12-13T23:49:54.995Z,101030.13
2023-12-13T23:52:21.476Z,101035.09
2023-12-13T23:54:47.947Z,101041.34
2023-12-13T23:57:14.413Z,101045.84
2023-12-13T23:59:40.877Z,101050.44
